sensor_id;sensor_type;location;lat;lon;timestamp;P1;durP1;ratioP1;P2;durP2;ratioP2
62401;SDS011;48440;51.224;22.506;2022-11-21T00:00:27;60.58;;;19.95;;
62401;SDS011;48440;51.224;22.506;2022-11-21T00:02:53;67.88;;;23.13;;
62401;SDS011;48440;51.224;22.506;2022-11-21T00:05:22;71.25;;;21.77;;
62401;SDS011;48440;51.224;22.506;2022-11-21T00:07:48;64.10;;;21.90;;
62401;SDS011;48440;51.224;22.506;2022-11-21T00:10:13;70.63;;;21.90;;
62401;SDS011;48440;51.224;22.506;2022-11-21T00:12:39;66.32;;;20.52;;
62401;SDS011;48440;51.224;22.506;2022-11-21T00:15:05;63.35;;;19.52;;
62401;SDS011;48440;51.224;22.506;2022-11-21T00:17:31;63.45;;;21.35;;
62401;SDS011;48440;51.224;22.506;2022-11-21T00:19:56;67.35;;;21.48;;
62401;SDS011;48440;51.224;22.506;2022-11-21T00:22:22;71.43;;;22.45;;
62401;SDS011;48440;51.224;22.506;2022-11-21T00:24:47;66.85;;;21.38;;
62401;SDS011;48440;51.224;22.506;2022-11-21T00:27:13;70.55;;;22.40;;
62401;SDS011;48440;51.224;22.506;2022-11-21T00:29:38;75.13;;;23.05;;
62401;SDS011;48440;51.224;22.506;2022-11-21T00:32:04;70.20;;;22.05;;
62401;SDS011;48440;51.224;22.506;2022-11-21T00:34:30;64.63;;;20.85;;
62401;SDS011;48440;51.224;22.506;2022-11-21T00:36:55;81.78;;;23.52;;
62401;SDS011;48440;51.224;22.506;2022-11-21T00:39:21;71.78;;;22.13;;
62401;SDS011;48440;51.224;22.506;2022-11-21T00:41:47;60.47;;;20.85;;
62401;SDS011;48440;51.224;22.506;2022-11-21T00:44:15;72.32;;;22.58;;
62401;SDS011;48440;51.224;22.506;2022-11-21T00:46:41;73.68;;;22.80;;
62401;SDS011;48440;51.224;22.506;2022-11-21T00:49:06;68.63;;;22.25;;
62401;SDS011;48440;51.224;22.506;2022-11-21T00:51:32;74.00;;;22.55;;
62401;SDS011;48440;51.224;22.506;2022-11-21T00:53:58;75.55;;;24.52;;
62401;SDS011;48440;51.224;22.506;2022-11-21T00:56:23;75.13;;;23.75;;
62401;SDS011;48440;51.224;22.506;2022-11-21T00:58:49;75.38;;;22.77;;
62401;SDS011;48440;51.224;22.506;2022-11-21T01:01:15;83.18;;;24.73;;
62401;SDS011;48440;51.224;22.506;2022-11-21T01:03:41;82.72;;;25.05;;
62401;SDS011;48440;51.224;22.506;2022-11-21T01:06:10;78.95;;;26.60;;
62401;SDS011;48440;51.224;22.506;2022-11-21T01:08:38;85.57;;;25.33;;
62401;SDS011;48440;51.224;22.506;2022-11-21T01:11:06;86.32;;;25.25;;
62401;SDS011;48440;51.224;22.506;2022-11-21T01:13:34;83.70;;;26.95;;
62401;SDS011;48440;51.224;22.506;2022-11-21T01:16:08;81.35;;;28.38;;
62401;SDS011;48440;51.224;22.506;2022-11-21T01:18:35;90.15;;;27.10;;
62401;SDS011;48440;51.224;22.506;2022-11-21T01:21:02;90.43;;;27.08;;
62401;SDS011;48440;51.224;22.506;2022-11-21T01:23:36;93.63;;;27.23;;
62401;SDS011;48440;51.224;22.506;2022-11-21T01:26:03;98.43;;;26.88;;
62401;SDS011;48440;51.224;22.506;2022-11-21T01:28:30;78.55;;;26.42;;
62401;SDS011;48440;51.224;22.506;2022-11-21T01:31:05;90.97;;;28.95;;
62401;SDS011;48440;51.224;22.506;2022-11-21T01:33:33;85.70;;;28.58;;
62401;SDS011;48440;51.224;22.506;2022-11-21T01:36:12;81.85;;;24.83;;
62401;SDS011;48440;51.224;22.506;2022-11-21T01:38:41;80.53;;;26.17;;
62401;SDS011;48440;51.224;22.506;2022-11-21T01:41:09;96.55;;;29.13;;
62401;SDS011;48440;51.224;22.506;2022-11-21T01:43:36;95.80;;;30.20;;
62401;SDS011;48440;51.224;22.506;2022-11-21T01:46:12;92.25;;;28.25;;
62401;SDS011;48440;51.224;22.506;2022-11-21T01:54:07;96.63;;;30.05;;
62401;SDS011;48440;51.224;22.506;2022-11-21T02:02:22;98.82;;;31.77;;
62401;SDS011;48440;51.224;22.506;2022-11-21T02:04:50;108.45;;;31.20;;
62401;SDS011;48440;51.224;22.506;2022-11-21T02:07:18;86.20;;;30.00;;
62401;SDS011;48440;51.224;22.506;2022-11-21T02:09:47;109.03;;;30.20;;
62401;SDS011;48440;51.224;22.506;2022-11-21T02:12:27;98.00;;;31.45;;
62401;SDS011;48440;51.224;22.506;2022-11-21T02:14:57;97.05;;;29.55;;
62401;SDS011;48440;51.224;22.506;2022-11-21T02:17:24;111.97;;;31.80;;
62401;SDS011;48440;51.224;22.506;2022-11-21T02:20:10;104.25;;;30.33;;
62401;SDS011;48440;51.224;22.506;2022-11-21T02:25:23;107.28;;;31.08;;
62401;SDS011;48440;51.224;22.506;2022-11-21T02:27:54;95.55;;;30.33;;
62401;SDS011;48440;51.224;22.506;2022-11-21T02:30:26;103.05;;;31.73;;
62401;SDS011;48440;51.224;22.506;2022-11-21T02:32:54;99.57;;;29.40;;
62401;SDS011;48440;51.224;22.506;2022-11-21T02:35:20;87.85;;;30.00;;
62401;SDS011;48440;51.224;22.506;2022-11-21T02:37:46;95.80;;;29.02;;
62401;SDS011;48440;51.224;22.506;2022-11-21T02:40:19;101.80;;;31.58;;
62401;SDS011;48440;51.224;22.506;2022-11-21T02:45:15;107.25;;;30.90;;
62401;SDS011;48440;51.224;22.506;2022-11-21T02:47:46;100.32;;;29.75;;
62401;SDS011;48440;51.224;22.506;2022-11-21T02:50:21;103.45;;;29.92;;
62401;SDS011;48440;51.224;22.506;2022-11-21T02:52:49;92.05;;;31.08;;
62401;SDS011;48440;51.224;22.506;2022-11-21T02:55:15;101.72;;;30.42;;
62401;SDS011;48440;51.224;22.506;2022-11-21T02:57:41;106.97;;;29.90;;
62401;SDS011;48440;51.224;22.506;2022-11-21T03:00:07;91.25;;;28.65;;
62401;SDS011;48440;51.224;22.506;2022-11-21T03:02:34;102.18;;;31.98;;
62401;SDS011;48440;51.224;22.506;2022-11-21T03:05:00;99.65;;;28.35;;
62401;SDS011;48440;51.224;22.506;2022-11-21T03:07:26;101.93;;;30.38;;
62401;SDS011;48440;51.224;22.506;2022-11-21T03:09:52;93.60;;;29.27;;
62401;SDS011;48440;51.224;22.506;2022-11-21T03:12:17;102.55;;;29.20;;
62401;SDS011;48440;51.224;22.506;2022-11-21T03:14:46;91.35;;;27.08;;
62401;SDS011;48440;51.224;22.506;2022-11-21T03:17:11;96.45;;;29.85;;
62401;SDS011;48440;51.224;22.506;2022-11-21T03:19:42;98.95;;;29.85;;
62401;SDS011;48440;51.224;22.506;2022-11-21T03:22:08;106.55;;;32.45;;
62401;SDS011;48440;51.224;22.506;2022-11-21T03:24:33;108.50;;;32.03;;
62401;SDS011;48440;51.224;22.506;2022-11-21T03:26:59;100.15;;;29.92;;
62401;SDS011;48440;51.224;22.506;2022-11-21T03:29:25;107.70;;;32.15;;
62401;SDS011;48440;51.224;22.506;2022-11-21T03:31:50;100.20;;;30.00;;
62401;SDS011;48440;51.224;22.506;2022-11-21T03:34:16;104.10;;;31.95;;
62401;SDS011;48440;51.224;22.506;2022-11-21T03:36:41;105.35;;;30.08;;
62401;SDS011;48440;51.224;22.506;2022-11-21T03:39:07;102.15;;;31.25;;
62401;SDS011;48440;51.224;22.506;2022-11-21T03:41:33;105.97;;;29.80;;
62401;SDS011;48440;51.224;22.506;2022-11-21T03:46:25;102.13;;;31.05;;
62401;SDS011;48440;51.224;22.506;2022-11-21T03:48:51;100.60;;;29.95;;
62401;SDS011;48440;51.224;22.506;2022-11-21T03:51:17;103.57;;;28.48;;
62401;SDS011;48440;51.224;22.506;2022-11-21T03:53:44;105.85;;;30.20;;
62401;SDS011;48440;51.224;22.506;2022-11-21T03:56:09;108.18;;;29.75;;
62401;SDS011;48440;51.224;22.506;2022-11-21T03:58:35;101.43;;;29.38;;
62401;SDS011;48440;51.224;22.506;2022-11-21T04:01:01;101.22;;;28.75;;
62401;SDS011;48440;51.224;22.506;2022-11-21T04:03:26;103.22;;;30.45;;
62401;SDS011;48440;51.224;22.506;2022-11-21T04:05:52;100.60;;;28.92;;
62401;SDS011;48440;51.224;22.506;2022-11-21T04:08:17;98.30;;;28.52;;
62401;SDS011;48440;51.224;22.506;2022-11-21T04:10:46;109.28;;;30.90;;
62401;SDS011;48440;51.224;22.506;2022-11-21T04:13:12;117.47;;;32.58;;
62401;SDS011;48440;51.224;22.506;2022-11-21T04:15:39;94.00;;;29.40;;
62401;SDS011;48440;51.224;22.506;2022-11-21T04:18:06;96.30;;;29.65;;
62401;SDS011;48440;51.224;22.506;2022-11-21T04:20:31;102.18;;;32.15;;
62401;SDS011;48440;51.224;22.506;2022-11-21T04:22:57;86.75;;;26.80;;
62401;SDS011;48440;51.224;22.506;2022-11-21T04:25:23;100.18;;;28.88;;
62401;SDS011;48440;51.224;22.506;2022-11-21T04:27:49;90.40;;;28.05;;
62401;SDS011;48440;51.224;22.506;2022-11-21T04:30:14;105.43;;;30.42;;
62401;SDS011;48440;51.224;22.506;2022-11-21T04:32:40;91.47;;;28.67;;
62401;SDS011;48440;51.224;22.506;2022-11-21T04:35:06;94.85;;;27.25;;
62401;SDS011;48440;51.224;22.506;2022-11-21T04:37:32;100.25;;;30.77;;
62401;SDS011;48440;51.224;22.506;2022-11-21T04:39:57;96.53;;;27.80;;
62401;SDS011;48440;51.224;22.506;2022-11-21T04:42:23;88.38;;;27.35;;
62401;SDS011;48440;51.224;22.506;2022-11-21T04:44:49;91.93;;;28.90;;
62401;SDS011;48440;51.224;22.506;2022-11-21T04:47:14;96.93;;;29.17;;
62401;SDS011;48440;51.224;22.506;2022-11-21T04:49:40;85.65;;;28.15;;
62401;SDS011;48440;51.224;22.506;2022-11-21T04:52:05;93.90;;;27.95;;
62401;SDS011;48440;51.224;22.506;2022-11-21T04:54:31;96.10;;;27.00;;
62401;SDS011;48440;51.224;22.506;2022-11-21T04:56:57;98.55;;;29.75;;
62401;SDS011;48440;51.224;22.506;2022-11-21T04:59:22;92.22;;;28.33;;
62401;SDS011;48440;51.224;22.506;2022-11-21T05:01:48;114.28;;;29.73;;
62401;SDS011;48440;51.224;22.506;2022-11-21T05:04:13;98.55;;;30.58;;
62401;SDS011;48440;51.224;22.506;2022-11-21T05:06:39;103.30;;;28.67;;
62401;SDS011;48440;51.224;22.506;2022-11-21T05:09:04;94.43;;;26.42;;
62401;SDS011;48440;51.224;22.506;2022-11-21T05:11:30;86.25;;;26.98;;
62401;SDS011;48440;51.224;22.506;2022-11-21T05:14:14;101.82;;;30.70;;
62401;SDS011;48440;51.224;22.506;2022-11-21T05:16:40;94.53;;;27.85;;
62401;SDS011;48440;51.224;22.506;2022-11-21T05:19:05;99.78;;;28.13;;
62401;SDS011;48440;51.224;22.506;2022-11-21T05:21:31;104.50;;;30.40;;
62401;SDS011;48440;51.224;22.506;2022-11-21T05:23:57;92.40;;;27.63;;
62401;SDS011;48440;51.224;22.506;2022-11-21T05:26:23;95.97;;;28.67;;
62401;SDS011;48440;51.224;22.506;2022-11-21T05:28:48;97.00;;;28.45;;
62401;SDS011;48440;51.224;22.506;2022-11-21T05:31:14;98.88;;;27.80;;
62401;SDS011;48440;51.224;22.506;2022-11-21T05:33:39;93.78;;;26.88;;
62401;SDS011;48440;51.224;22.506;2022-11-21T05:36:05;85.47;;;25.33;;
62401;SDS011;48440;51.224;22.506;2022-11-21T05:38:30;95.00;;;27.65;;
62401;SDS011;48440;51.224;22.506;2022-11-21T05:40:56;90.00;;;28.05;;
62401;SDS011;48440;51.224;22.506;2022-11-21T05:43:21;88.47;;;26.33;;
62401;SDS011;48440;51.224;22.506;2022-11-21T05:46:06;95.90;;;27.02;;
62401;SDS011;48440;51.224;22.506;2022-11-21T05:48:38;81.82;;;25.67;;
62401;SDS011;48440;51.224;22.506;2022-11-21T05:51:03;86.85;;;24.58;;
62401;SDS011;48440;51.224;22.506;2022-11-21T05:53:29;89.20;;;23.45;;
62401;SDS011;48440;51.224;22.506;2022-11-21T05:55:55;81.88;;;25.90;;
62401;SDS011;48440;51.224;22.506;2022-11-21T05:58:20;83.53;;;24.17;;
62401;SDS011;48440;51.224;22.506;2022-11-21T06:00:46;85.60;;;25.15;;
62401;SDS011;48440;51.224;22.506;2022-11-21T06:03:12;93.45;;;26.05;;
62401;SDS011;48440;51.224;22.506;2022-11-21T06:06:02;95.50;;;28.05;;
62401;SDS011;48440;51.224;22.506;2022-11-21T06:08:29;97.72;;;28.35;;
62401;SDS011;48440;51.224;22.506;2022-11-21T06:10:56;85.25;;;25.15;;
62401;SDS011;48440;51.224;22.506;2022-11-21T06:13:22;91.35;;;24.95;;
62401;SDS011;48440;51.224;22.506;2022-11-21T06:15:51;87.40;;;26.08;;
62401;SDS011;48440;51.224;22.506;2022-11-21T06:18:22;98.72;;;24.45;;
62401;SDS011;48440;51.224;22.506;2022-11-21T06:20:48;85.18;;;25.33;;
62401;SDS011;48440;51.224;22.506;2022-11-21T06:23:14;84.18;;;25.77;;
62401;SDS011;48440;51.224;22.506;2022-11-21T06:25:40;88.75;;;24.98;;
62401;SDS011;48440;51.224;22.506;2022-11-21T06:28:07;90.70;;;25.33;;
62401;SDS011;48440;51.224;22.506;2022-11-21T06:30:32;102.55;;;25.33;;
62401;SDS011;48440;51.224;22.506;2022-11-21T06:32:58;90.25;;;24.25;;
62401;SDS011;48440;51.224;22.506;2022-11-21T06:35:24;90.68;;;24.58;;
62401;SDS011;48440;51.224;22.506;2022-11-21T06:37:49;75.35;;;24.98;;
62401;SDS011;48440;51.224;22.506;2022-11-21T06:40:15;82.00;;;25.45;;
62401;SDS011;48440;51.224;22.506;2022-11-21T06:42:40;83.90;;;25.98;;
62401;SDS011;48440;51.224;22.506;2022-11-21T06:45:06;90.00;;;26.65;;
62401;SDS011;48440;51.224;22.506;2022-11-21T06:47:32;89.30;;;25.17;;
62401;SDS011;48440;51.224;22.506;2022-11-21T06:50:02;82.47;;;25.35;;
62401;SDS011;48440;51.224;22.506;2022-11-21T06:52:33;84.70;;;25.15;;
62401;SDS011;48440;51.224;22.506;2022-11-21T06:54:59;80.45;;;23.90;;
62401;SDS011;48440;51.224;22.506;2022-11-21T06:57:25;87.65;;;25.85;;
62401;SDS011;48440;51.224;22.506;2022-11-21T06:59:51;77.75;;;24.00;;
62401;SDS011;48440;51.224;22.506;2022-11-21T07:02:17;72.95;;;23.90;;
62401;SDS011;48440;51.224;22.506;2022-11-21T07:04:43;93.78;;;25.88;;
62401;SDS011;48440;51.224;22.506;2022-11-21T07:07:09;78.10;;;25.70;;
62401;SDS011;48440;51.224;22.506;2022-11-21T07:09:34;83.55;;;25.75;;
62401;SDS011;48440;51.224;22.506;2022-11-21T07:12:00;82.32;;;24.63;;
62401;SDS011;48440;51.224;22.506;2022-11-21T07:14:45;94.97;;;26.42;;
62401;SDS011;48440;51.224;22.506;2022-11-21T07:17:11;90.03;;;27.33;;
62401;SDS011;48440;51.224;22.506;2022-11-21T07:19:37;92.22;;;26.15;;
62401;SDS011;48440;51.224;22.506;2022-11-21T07:22:03;88.13;;;25.00;;
62401;SDS011;48440;51.224;22.506;2022-11-21T07:24:29;93.90;;;28.88;;
62401;SDS011;48440;51.224;22.506;2022-11-21T07:26:55;88.40;;;26.75;;
62401;SDS011;48440;51.224;22.506;2022-11-21T07:29:20;84.70;;;23.75;;
62401;SDS011;48440;51.224;22.506;2022-11-21T07:31:46;89.68;;;26.05;;
62401;SDS011;48440;51.224;22.506;2022-11-21T07:34:13;83.85;;;25.58;;
62401;SDS011;48440;51.224;22.506;2022-11-21T07:36:39;85.13;;;26.25;;
62401;SDS011;48440;51.224;22.506;2022-11-21T07:39:07;94.03;;;26.42;;
62401;SDS011;48440;51.224;22.506;2022-11-21T07:41:33;90.10;;;27.35;;
62401;SDS011;48440;51.224;22.506;2022-11-21T07:44:02;98.80;;;26.55;;
62401;SDS011;48440;51.224;22.506;2022-11-21T07:46:28;96.47;;;28.05;;
62401;SDS011;48440;51.224;22.506;2022-11-21T07:48:54;86.35;;;27.27;;
62401;SDS011;48440;51.224;22.506;2022-11-21T07:51:20;102.82;;;29.60;;
62401;SDS011;48440;51.224;22.506;2022-11-21T07:53:46;99.53;;;27.63;;
62401;SDS011;48440;51.224;22.506;2022-11-21T07:56:12;90.85;;;28.05;;
62401;SDS011;48440;51.224;22.506;2022-11-21T07:58:38;91.93;;;26.67;;
62401;SDS011;48440;51.224;22.506;2022-11-21T08:01:05;87.45;;;25.77;;
62401;SDS011;48440;51.224;22.506;2022-11-21T08:03:32;85.90;;;25.77;;
62401;SDS011;48440;51.224;22.506;2022-11-21T08:06:02;95.68;;;26.92;;
62401;SDS011;48440;51.224;22.506;2022-11-21T08:08:29;98.03;;;28.25;;
62401;SDS011;48440;51.224;22.506;2022-11-21T08:10:55;89.45;;;27.30;;
62401;SDS011;48440;51.224;22.506;2022-11-21T08:13:22;100.18;;;29.75;;
62401;SDS011;48440;51.224;22.506;2022-11-21T08:15:48;99.43;;;30.17;;
62401;SDS011;48440;51.224;22.506;2022-11-21T08:18:15;107.43;;;30.77;;
62401;SDS011;48440;51.224;22.506;2022-11-21T08:20:43;95.38;;;27.52;;
62401;SDS011;48440;51.224;22.506;2022-11-21T08:23:09;103.55;;;31.17;;
62401;SDS011;48440;51.224;22.506;2022-11-21T08:25:39;100.63;;;29.48;;
62401;SDS011;48440;51.224;22.506;2022-11-21T08:28:06;107.70;;;30.38;;
62401;SDS011;48440;51.224;22.506;2022-11-21T08:30:33;101.50;;;30.42;;
62401;SDS011;48440;51.224;22.506;2022-11-21T08:33:00;100.30;;;31.23;;
62401;SDS011;48440;51.224;22.506;2022-11-21T08:35:27;93.22;;;28.65;;
62401;SDS011;48440;51.224;22.506;2022-11-21T08:37:59;99.63;;;28.98;;
62401;SDS011;48440;51.224;22.506;2022-11-21T08:40:27;101.53;;;29.45;;
62401;SDS011;48440;51.224;22.506;2022-11-21T08:42:57;88.82;;;27.35;;
62401;SDS011;48440;51.224;22.506;2022-11-21T08:45:23;94.10;;;27.73;;
62401;SDS011;48440;51.224;22.506;2022-11-21T08:47:52;98.38;;;28.52;;
62401;SDS011;48440;51.224;22.506;2022-11-21T08:50:19;89.18;;;27.52;;
62401;SDS011;48440;51.224;22.506;2022-11-21T08:52:45;84.57;;;27.15;;
62401;SDS011;48440;51.224;22.506;2022-11-21T08:55:11;89.75;;;28.15;;
62401;SDS011;48440;51.224;22.506;2022-11-21T08:57:38;86.75;;;27.40;;
62401;SDS011;48440;51.224;22.506;2022-11-21T09:00:05;86.55;;;27.73;;
62401;SDS011;48440;51.224;22.506;2022-11-21T09:02:33;86.82;;;27.95;;
62401;SDS011;48440;51.224;22.506;2022-11-21T09:05:00;85.72;;;26.50;;
62401;SDS011;48440;51.224;22.506;2022-11-21T09:07:26;88.50;;;28.05;;
62401;SDS011;48440;51.224;22.506;2022-11-21T09:09:52;84.47;;;27.63;;
62401;SDS011;48440;51.224;22.506;2022-11-21T09:12:18;80.95;;;26.05;;
62401;SDS011;48440;51.224;22.506;2022-11-21T09:14:44;77.38;;;26.70;;
62401;SDS011;48440;51.224;22.506;2022-11-21T09:17:29;77.93;;;25.98;;
62401;SDS011;48440;51.224;22.506;2022-11-21T09:20:14;85.20;;;25.60;;
62401;SDS011;48440;51.224;22.506;2022-11-21T09:22:40;84.78;;;26.50;;
62401;SDS011;48440;51.224;22.506;2022-11-21T09:25:06;80.40;;;27.02;;
62401;SDS011;48440;51.224;22.506;2022-11-21T09:27:32;84.63;;;27.20;;
62401;SDS011;48440;51.224;22.506;2022-11-21T09:29:58;75.55;;;27.83;;
62401;SDS011;48440;51.224;22.506;2022-11-21T09:32:25;77.57;;;26.75;;
62401;SDS011;48440;51.224;22.506;2022-11-21T09:34:51;84.35;;;28.30;;
62401;SDS011;48440;51.224;22.506;2022-11-21T09:37:17;92.00;;;28.83;;
62401;SDS011;48440;51.224;22.506;2022-11-21T09:39:43;85.82;;;27.85;;
62401;SDS011;48440;51.224;22.506;2022-11-21T09:45:18;77.50;;;27.15;;
62401;SDS011;48440;51.224;22.506;2022-11-21T09:47:46;87.60;;;28.75;;
62401;SDS011;48440;51.224;22.506;2022-11-21T09:50:18;76.80;;;25.63;;
62401;SDS011;48440;51.224;22.506;2022-11-21T09:52:50;80.57;;;27.40;;
62401;SDS011;48440;51.224;22.506;2022-11-21T10:01:10;84.90;;;28.42;;
62401;SDS011;48440;51.224;22.506;2022-11-21T10:03:44;82.78;;;26.95;;
62401;SDS011;48440;51.224;22.506;2022-11-21T10:11:47;82.53;;;28.90;;
62401;SDS011;48440;51.224;22.506;2022-11-21T10:17:49;78.10;;;27.10;;
62401;SDS011;48440;51.224;22.506;2022-11-21T10:26:27;68.68;;;24.98;;
62401;SDS011;48440;51.224;22.506;2022-11-21T10:31:42;72.22;;;25.13;;
62401;SDS011;48440;51.224;22.506;2022-11-21T10:34:09;70.78;;;24.27;;
62401;SDS011;48440;51.224;22.506;2022-11-21T10:36:40;69.93;;;25.63;;
62401;SDS011;48440;51.224;22.506;2022-11-21T10:44:30;60.38;;;22.80;;
62401;SDS011;48440;51.224;22.506;2022-11-21T10:47:19;61.15;;;23.02;;
62401;SDS011;48440;51.224;22.506;2022-11-21T10:52:35;56.67;;;22.00;;
62401;SDS011;48440;51.224;22.506;2022-11-21T10:57:44;60.42;;;22.70;;
62401;SDS011;48440;51.224;22.506;2022-11-21T11:02:40;59.13;;;21.45;;
62401;SDS011;48440;51.224;22.506;2022-11-21T11:05:25;58.30;;;21.73;;
62401;SDS011;48440;51.224;22.506;2022-11-21T11:10:34;49.50;;;18.98;;
62401;SDS011;48440;51.224;22.506;2022-11-21T11:13:01;51.88;;;20.10;;
62401;SDS011;48440;51.224;22.506;2022-11-21T11:16:19;51.53;;;20.73;;
62401;SDS011;48440;51.224;22.506;2022-11-21T11:21:49;54.85;;;20.67;;
62401;SDS011;48440;51.224;22.506;2022-11-21T11:29:20;54.08;;;20.52;;
62401;SDS011;48440;51.224;22.506;2022-11-21T11:31:51;52.90;;;20.30;;
62401;SDS011;48440;51.224;22.506;2022-11-21T11:34:27;53.08;;;19.40;;
62401;SDS011;48440;51.224;22.506;2022-11-21T11:39:38;52.72;;;20.10;;
62401;SDS011;48440;51.224;22.506;2022-11-21T11:42:26;56.00;;;21.48;;
62401;SDS011;48440;51.224;22.506;2022-11-21T11:50:48;48.58;;;19.25;;
62401;SDS011;48440;51.224;22.506;2022-11-21T11:53:38;46.85;;;18.65;;
62401;SDS011;48440;51.224;22.506;2022-11-21T11:56:24;46.58;;;18.80;;
62401;SDS011;48440;51.224;22.506;2022-11-21T11:58:59;53.77;;;22.10;;
62401;SDS011;48440;51.224;22.506;2022-11-21T12:01:36;47.40;;;19.60;;
62401;SDS011;48440;51.224;22.506;2022-11-21T12:04:17;62.80;;;23.73;;
62401;SDS011;48440;51.224;22.506;2022-11-21T12:07:04;54.15;;;22.85;;
62401;SDS011;48440;51.224;22.506;2022-11-21T12:12:27;47.00;;;18.70;;
62401;SDS011;48440;51.224;22.506;2022-11-21T12:16:05;54.80;;;19.77;;
62401;SDS011;48440;51.224;22.506;2022-11-21T12:23:22;49.25;;;19.50;;
62401;SDS011;48440;51.224;22.506;2022-11-21T12:45:30;53.42;;;21.05;;
62401;SDS011;48440;51.224;22.506;2022-11-21T12:54:19;50.10;;;20.67;;
62401;SDS011;48440;51.224;22.506;2022-11-21T12:59:59;50.97;;;21.35;;
62401;SDS011;48440;51.224;22.506;2022-11-21T13:05:38;47.25;;;21.17;;
62401;SDS011;48440;51.224;22.506;2022-11-21T13:08:10;52.03;;;19.27;;
62401;SDS011;48440;51.224;22.506;2022-11-21T13:10:43;49.50;;;20.17;;
62401;SDS011;48440;51.224;22.506;2022-11-21T13:13:44;53.28;;;20.70;;
62401;SDS011;48440;51.224;22.506;2022-11-21T13:16:17;53.13;;;20.23;;
62401;SDS011;48440;51.224;22.506;2022-11-21T13:19:02;46.10;;;19.55;;
62401;SDS011;48440;51.224;22.506;2022-11-21T13:21:55;58.30;;;23.08;;
62401;SDS011;48440;51.224;22.506;2022-11-21T13:27:08;54.22;;;21.25;;
62401;SDS011;48440;51.224;22.506;2022-11-21T13:38:03;58.75;;;21.63;;
62401;SDS011;48440;51.224;22.506;2022-11-21T13:40:37;54.13;;;20.60;;
62401;SDS011;48440;51.224;22.506;2022-11-21T13:43:25;57.20;;;21.63;;
62401;SDS011;48440;51.224;22.506;2022-11-21T13:45:51;52.42;;;22.08;;
62401;SDS011;48440;51.224;22.506;2022-11-21T13:58:44;48.13;;;19.20;;
62401;SDS011;48440;51.224;22.506;2022-11-21T14:06:41;52.58;;;19.98;;
62401;SDS011;48440;51.224;22.506;2022-11-21T14:09:33;47.35;;;18.98;;
62401;SDS011;48440;51.224;22.506;2022-11-21T14:12:18;50.47;;;19.93;;
62401;SDS011;48440;51.224;22.506;2022-11-21T14:20:27;51.38;;;21.00;;
62401;SDS011;48440;51.224;22.506;2022-11-21T14:28:05;58.40;;;21.30;;
62401;SDS011;48440;51.224;22.506;2022-11-21T14:33:22;52.60;;;20.23;;
62401;SDS011;48440;51.224;22.506;2022-11-21T14:36:02;54.00;;;21.00;;
62401;SDS011;48440;51.224;22.506;2022-11-21T14:38:44;50.90;;;19.23;;
62401;SDS011;48440;51.224;22.506;2022-11-21T14:46:22;46.38;;;18.35;;
62401;SDS011;48440;51.224;22.506;2022-11-21T14:48:52;50.35;;;19.95;;
62401;SDS011;48440;51.224;22.506;2022-11-21T14:51:24;52.83;;;19.23;;
62401;SDS011;48440;51.224;22.506;2022-11-21T14:53:54;40.25;;;17.20;;
62401;SDS011;48440;51.224;22.506;2022-11-21T14:56:25;45.72;;;18.98;;
62401;SDS011;48440;51.224;22.506;2022-11-21T14:58:53;42.45;;;17.17;;
62401;SDS011;48440;51.224;22.506;2022-11-21T15:01:22;43.40;;;18.23;;
62401;SDS011;48440;51.224;22.506;2022-11-21T15:03:54;41.05;;;17.23;;
62401;SDS011;48440;51.224;22.506;2022-11-21T15:06:20;44.25;;;16.60;;
62401;SDS011;48440;51.224;22.506;2022-11-21T15:08:45;45.83;;;18.75;;
62401;SDS011;48440;51.224;22.506;2022-11-21T15:11:11;46.03;;;20.17;;
62401;SDS011;48440;51.224;22.506;2022-11-21T15:13:40;50.50;;;21.02;;
62401;SDS011;48440;51.224;22.506;2022-11-21T15:16:13;57.90;;;20.83;;
62401;SDS011;48440;51.224;22.506;2022-11-21T15:18:39;57.15;;;21.38;;
62401;SDS011;48440;51.224;22.506;2022-11-21T15:21:06;53.25;;;21.77;;
62401;SDS011;48440;51.224;22.506;2022-11-21T15:23:37;54.83;;;22.40;;
62401;SDS011;48440;51.224;22.506;2022-11-21T15:26:04;55.15;;;21.88;;
62401;SDS011;48440;51.224;22.506;2022-11-21T15:28:53;53.92;;;20.42;;
62401;SDS011;48440;51.224;22.506;2022-11-21T15:31:20;50.42;;;21.52;;
62401;SDS011;48440;51.224;22.506;2022-11-21T15:33:57;56.88;;;23.17;;
62401;SDS011;48440;51.224;22.506;2022-11-21T15:36:25;53.83;;;20.42;;
62401;SDS011;48440;51.224;22.506;2022-11-21T15:41:25;47.72;;;18.83;;
62401;SDS011;48440;51.224;22.506;2022-11-21T15:46:33;55.72;;;20.50;;
62401;SDS011;48440;51.224;22.506;2022-11-21T15:49:05;51.42;;;20.27;;
62401;SDS011;48440;51.224;22.506;2022-11-21T15:54:19;52.17;;;21.08;;
62401;SDS011;48440;51.224;22.506;2022-11-21T15:56:46;61.90;;;23.33;;
62401;SDS011;48440;51.224;22.506;2022-11-21T15:59:12;61.60;;;23.50;;
62401;SDS011;48440;51.224;22.506;2022-11-21T16:01:38;56.20;;;22.60;;
62401;SDS011;48440;51.224;22.506;2022-11-21T16:04:05;61.78;;;23.17;;
62401;SDS011;48440;51.224;22.506;2022-11-21T16:06:35;66.25;;;22.63;;
62401;SDS011;48440;51.224;22.506;2022-11-21T16:09:01;56.67;;;21.23;;
62401;SDS011;48440;51.224;22.506;2022-11-21T16:11:29;55.88;;;21.20;;
62401;SDS011;48440;51.224;22.506;2022-11-21T16:13:57;62.53;;;23.17;;
62401;SDS011;48440;51.224;22.506;2022-11-21T16:16:25;51.80;;;21.40;;
62401;SDS011;48440;51.224;22.506;2022-11-21T16:18:56;54.15;;;22.10;;
62401;SDS011;48440;51.224;22.506;2022-11-21T16:21:23;55.03;;;20.58;;
62401;SDS011;48440;51.224;22.506;2022-11-21T16:23:49;51.03;;;19.80;;
62401;SDS011;48440;51.224;22.506;2022-11-21T16:26:15;55.03;;;22.00;;
62401;SDS011;48440;51.224;22.506;2022-11-21T16:28:41;51.95;;;19.13;;
62401;SDS011;48440;51.224;22.506;2022-11-21T16:31:16;61.08;;;22.83;;
62401;SDS011;48440;51.224;22.506;2022-11-21T16:33:46;57.72;;;20.58;;
62401;SDS011;48440;51.224;22.506;2022-11-21T16:36:12;52.40;;;20.17;;
62401;SDS011;48440;51.224;22.506;2022-11-21T16:38:42;61.53;;;22.30;;
62401;SDS011;48440;51.224;22.506;2022-11-21T16:41:08;57.30;;;21.40;;
62401;SDS011;48440;51.224;22.506;2022-11-21T16:43:34;59.53;;;22.75;;
62401;SDS011;48440;51.224;22.506;2022-11-21T16:46:06;61.17;;;22.50;;
62401;SDS011;48440;51.224;22.506;2022-11-21T16:48:33;58.40;;;22.13;;
62401;SDS011;48440;51.224;22.506;2022-11-21T16:51:13;64.15;;;23.38;;
62401;SDS011;48440;51.224;22.506;2022-11-21T16:53:40;65.80;;;23.30;;
62401;SDS011;48440;51.224;22.506;2022-11-21T16:56:07;60.42;;;20.70;;
62401;SDS011;48440;51.224;22.506;2022-11-21T16:58:34;60.45;;;21.88;;
62401;SDS011;48440;51.224;22.506;2022-11-21T17:03:59;58.03;;;20.52;;
62401;SDS011;48440;51.224;22.506;2022-11-21T17:06:27;75.05;;;25.65;;
62401;SDS011;48440;51.224;22.506;2022-11-21T17:08:54;68.13;;;25.65;;
62401;SDS011;48440;51.224;22.506;2022-11-21T17:11:21;61.85;;;23.45;;